sensor_id;sensor_type;location;lat;lon;timestamp;P1;durP1;ratioP1;P2;durP2;ratioP2
13891;SDS011;7016;48.172;8.058;2022-09-06T00:01:40;5.97;;;3.15;;
13891;SDS011;7016;48.172;8.058;2022-09-06T00:04:06;8.10;;;3.47;;
13891;SDS011;7016;48.172;8.058;2022-09-06T00:06:32;6.35;;;3.20;;
13891;SDS011;7016;48.172;8.058;2022-09-06T00:08:58;6.35;;;3.38;;
13891;SDS011;7016;48.172;8.058;2022-09-06T00:11:24;6.70;;;3.28;;
13891;SDS011;7016;48.172;8.058;2022-09-06T00:13:50;7.75;;;3.10;;
13891;SDS011;7016;48.172;8.058;2022-09-06T00:16:17;7.15;;;3.35;;
13891;SDS011;7016;48.172;8.058;2022-09-06T00:18:45;5.55;;;3.10;;
13891;SDS011;7016;48.172;8.058;2022-09-06T00:21:18;5.80;;;3.60;;
13891;SDS011;7016;48.172;8.058;2022-09-06T00:23:46;7.10;;;3.55;;
13891;SDS011;7016;48.172;8.058;2022-09-06T00:26:12;6.13;;;3.40;;
13891;SDS011;7016;48.172;8.058;2022-09-06T00:28:38;6.57;;;3.78;;
13891;SDS011;7016;48.172;8.058;2022-09-06T00:31:11;9.25;;;3.40;;
13891;SDS011;7016;48.172;8.058;2022-09-06T00:33:39;5.40;;;3.40;;
13891;SDS011;7016;48.172;8.058;2022-09-06T00:36:05;5.50;;;3.30;;
13891;SDS011;7016;48.172;8.058;2022-09-06T00:38:31;9.60;;;3.40;;
13891;SDS011;7016;48.172;8.058;2022-09-06T00:40:57;6.45;;;3.28;;
13891;SDS011;7016;48.172;8.058;2022-09-06T00:43:23;7.93;;;3.75;;
13891;SDS011;7016;48.172;8.058;2022-09-06T00:45:49;4.60;;;3.35;;
13891;SDS011;7016;48.172;8.058;2022-09-06T00:48:16;7.25;;;3.40;;
13891;SDS011;7016;48.172;8.058;2022-09-06T00:50:43;6.03;;;3.40;;
13891;SDS011;7016;48.172;8.058;2022-09-06T00:53:10;8.35;;;3.67;;
13891;SDS011;7016;48.172;8.058;2022-09-06T00:55:36;4.93;;;3.00;;
13891;SDS011;7016;48.172;8.058;2022-09-06T00:58:05;6.45;;;3.42;;
13891;SDS011;7016;48.172;8.058;2022-09-06T01:00:31;6.50;;;3.30;;
13891;SDS011;7016;48.172;8.058;2022-09-06T01:02:57;6.28;;;3.20;;
13891;SDS011;7016;48.172;8.058;2022-09-06T01:05:25;6.03;;;3.42;;
13891;SDS011;7016;48.172;8.058;2022-09-06T01:08:15;5.97;;;3.15;;
13891;SDS011;7016;48.172;8.058;2022-09-06T01:11:00;6.70;;;3.58;;
13891;SDS011;7016;48.172;8.058;2022-09-06T01:16:12;5.63;;;3.50;;
13891;SDS011;7016;48.172;8.058;2022-09-06T01:19:10;6.85;;;3.40;;
13891;SDS011;7016;48.172;8.058;2022-09-06T01:21:46;6.65;;;3.63;;
13891;SDS011;7016;48.172;8.058;2022-09-06T01:29:50;6.05;;;3.47;;
13891;SDS011;7016;48.172;8.058;2022-09-06T01:32:32;5.78;;;3.72;;
13891;SDS011;7016;48.172;8.058;2022-09-06T01:38:03;6.95;;;3.58;;
13891;SDS011;7016;48.172;8.058;2022-09-06T01:40:31;6.47;;;3.40;;
13891;SDS011;7016;48.172;8.058;2022-09-06T01:43:00;4.40;;;3.53;;
13891;SDS011;7016;48.172;8.058;2022-09-06T01:45:37;5.15;;;3.28;;
13891;SDS011;7016;48.172;8.058;2022-09-06T01:48:23;6.72;;;3.58;;
13891;SDS011;7016;48.172;8.058;2022-09-06T01:59:19;8.30;;;3.67;;
13891;SDS011;7016;48.172;8.058;2022-09-06T02:07:02;5.78;;;3.70;;
13891;SDS011;7016;48.172;8.058;2022-09-06T02:09:37;5.88;;;3.53;;
13891;SDS011;7016;48.172;8.058;2022-09-06T02:12:07;8.43;;;3.60;;
13891;SDS011;7016;48.172;8.058;2022-09-06T02:14:39;5.10;;;3.70;;
13891;SDS011;7016;48.172;8.058;2022-09-06T02:17:10;6.72;;;3.40;;
13891;SDS011;7016;48.172;8.058;2022-09-06T02:19:42;5.15;;;4.03;;
13891;SDS011;7016;48.172;8.058;2022-09-06T02:22:13;5.40;;;3.47;;
13891;SDS011;7016;48.172;8.058;2022-09-06T02:24:43;5.88;;;3.42;;
13891;SDS011;7016;48.172;8.058;2022-09-06T02:27:11;5.95;;;3.60;;
13891;SDS011;7016;48.172;8.058;2022-09-06T02:29:38;5.22;;;3.40;;
13891;SDS011;7016;48.172;8.058;2022-09-06T02:34:35;8.40;;;3.42;;
13891;SDS011;7016;48.172;8.058;2022-09-06T02:37:04;8.70;;;3.35;;
13891;SDS011;7016;48.172;8.058;2022-09-06T02:39:30;8.55;;;3.40;;
13891;SDS011;7016;48.172;8.058;2022-09-06T02:41:56;8.80;;;3.67;;
13891;SDS011;7016;48.172;8.058;2022-09-06T02:44:22;6.80;;;3.60;;
13891;SDS011;7016;48.172;8.058;2022-09-06T02:46:48;6.07;;;3.60;;
13891;SDS011;7016;48.172;8.058;2022-09-06T02:49:14;6.80;;;4.25;;
13891;SDS011;7016;48.172;8.058;2022-09-06T02:51:39;7.05;;;3.78;;
13891;SDS011;7016;48.172;8.058;2022-09-06T02:54:05;6.63;;;3.30;;
13891;SDS011;7016;48.172;8.058;2022-09-06T02:56:31;8.23;;;3.83;;
13891;SDS011;7016;48.172;8.058;2022-09-06T02:58:58;8.25;;;3.58;;
13891;SDS011;7016;48.172;8.058;2022-09-06T03:01:24;5.43;;;3.47;;
13891;SDS011;7016;48.172;8.058;2022-09-06T03:03:50;6.90;;;3.95;;
13891;SDS011;7016;48.172;8.058;2022-09-06T03:06:16;8.93;;;3.65;;
13891;SDS011;7016;48.172;8.058;2022-09-06T03:08:42;7.35;;;3.75;;
13891;SDS011;7016;48.172;8.058;2022-09-06T03:11:07;7.28;;;3.92;;
13891;SDS011;7016;48.172;8.058;2022-09-06T03:13:33;10.45;;;3.70;;
13891;SDS011;7016;48.172;8.058;2022-09-06T03:15:59;7.03;;;3.65;;
13891;SDS011;7016;48.172;8.058;2022-09-06T03:18:25;10.30;;;3.67;;
13891;SDS011;7016;48.172;8.058;2022-09-06T03:20:53;5.80;;;3.78;;
13891;SDS011;7016;48.172;8.058;2022-09-06T03:23:22;8.52;;;3.53;;
13891;SDS011;7016;48.172;8.058;2022-09-06T03:25:49;6.93;;;4.18;;
13891;SDS011;7016;48.172;8.058;2022-09-06T03:28:15;8.75;;;3.80;;
13891;SDS011;7016;48.172;8.058;2022-09-06T03:30:46;6.80;;;3.60;;
13891;SDS011;7016;48.172;8.058;2022-09-06T03:33:13;4.18;;;3.40;;
13891;SDS011;7016;48.172;8.058;2022-09-06T03:35:39;6.38;;;3.63;;
13891;SDS011;7016;48.172;8.058;2022-09-06T03:38:05;10.20;;;3.95;;
13891;SDS011;7016;48.172;8.058;2022-09-06T03:40:32;5.57;;;3.70;;
13891;SDS011;7016;48.172;8.058;2022-09-06T03:42:57;8.73;;;3.80;;
13891;SDS011;7016;48.172;8.058;2022-09-06T03:45:23;5.38;;;3.78;;
13891;SDS011;7016;48.172;8.058;2022-09-06T03:47:49;7.45;;;3.95;;
13891;SDS011;7016;48.172;8.058;2022-09-06T03:50:14;6.45;;;3.70;;
13891;SDS011;7016;48.172;8.058;2022-09-06T03:52:40;6.28;;;3.70;;
13891;SDS011;7016;48.172;8.058;2022-09-06T03:55:06;6.00;;;3.60;;
13891;SDS011;7016;48.172;8.058;2022-09-06T03:57:32;5.90;;;3.95;;
13891;SDS011;7016;48.172;8.058;2022-09-06T03:59:58;8.27;;;4.15;;
13891;SDS011;7016;48.172;8.058;2022-09-06T04:02:23;8.15;;;3.78;;
13891;SDS011;7016;48.172;8.058;2022-09-06T04:04:49;7.38;;;4.18;;
13891;SDS011;7016;48.172;8.058;2022-09-06T04:07:19;6.60;;;4.15;;
13891;SDS011;7016;48.172;8.058;2022-09-06T04:09:46;10.63;;;4.07;;
13891;SDS011;7016;48.172;8.058;2022-09-06T04:12:13;10.18;;;4.40;;
13891;SDS011;7016;48.172;8.058;2022-09-06T04:14:38;5.47;;;3.90;;
13891;SDS011;7016;48.172;8.058;2022-09-06T04:17:04;8.25;;;4.25;;
13891;SDS011;7016;48.172;8.058;2022-09-06T04:19:30;9.32;;;3.90;;
13891;SDS011;7016;48.172;8.058;2022-09-06T04:21:55;10.50;;;4.07;;
13891;SDS011;7016;48.172;8.058;2022-09-06T04:24:21;7.57;;;4.50;;
13891;SDS011;7016;48.172;8.058;2022-09-06T04:26:47;8.95;;;4.00;;
13891;SDS011;7016;48.172;8.058;2022-09-06T04:29:12;8.27;;;4.05;;
13891;SDS011;7016;48.172;8.058;2022-09-06T04:31:38;6.00;;;3.90;;
13891;SDS011;7016;48.172;8.058;2022-09-06T04:34:04;6.95;;;3.85;;
13891;SDS011;7016;48.172;8.058;2022-09-06T04:36:29;7.18;;;4.45;;
13891;SDS011;7016;48.172;8.058;2022-09-06T04:38:55;13.43;;;4.68;;
13891;SDS011;7016;48.172;8.058;2022-09-06T04:41:21;7.97;;;4.22;;
13891;SDS011;7016;48.172;8.058;2022-09-06T04:43:47;8.40;;;4.60;;
13891;SDS011;7016;48.172;8.058;2022-09-06T04:46:18;8.38;;;4.40;;
13891;SDS011;7016;48.172;8.058;2022-09-06T04:49:05;7.95;;;4.47;;
13891;SDS011;7016;48.172;8.058;2022-09-06T04:51:30;7.63;;;4.70;;
13891;SDS011;7016;48.172;8.058;2022-09-06T04:53:56;7.28;;;4.47;;
13891;SDS011;7016;48.172;8.058;2022-09-06T04:56:23;7.45;;;4.30;;
13891;SDS011;7016;48.172;8.058;2022-09-06T04:58:50;5.82;;;3.92;;
13891;SDS011;7016;48.172;8.058;2022-09-06T05:01:17;7.43;;;4.10;;
13891;SDS011;7016;48.172;8.058;2022-09-06T05:03:44;7.25;;;4.30;;
13891;SDS011;7016;48.172;8.058;2022-09-06T05:06:11;9.25;;;4.40;;
13891;SDS011;7016;48.172;8.058;2022-09-06T05:08:44;10.43;;;4.65;;
13891;SDS011;7016;48.172;8.058;2022-09-06T05:11:11;7.75;;;4.38;;
13891;SDS011;7016;48.172;8.058;2022-09-06T05:13:37;7.18;;;4.43;;
13891;SDS011;7016;48.172;8.058;2022-09-06T05:16:04;9.23;;;4.43;;
13891;SDS011;7016;48.172;8.058;2022-09-06T05:18:31;6.75;;;4.18;;
13891;SDS011;7016;48.172;8.058;2022-09-06T05:20:57;7.32;;;4.57;;
13891;SDS011;7016;48.172;8.058;2022-09-06T05:23:23;7.40;;;4.20;;
13891;SDS011;7016;48.172;8.058;2022-09-06T05:25:49;12.27;;;4.38;;
13891;SDS011;7016;48.172;8.058;2022-09-06T05:28:16;8.02;;;3.88;;
13891;SDS011;7016;48.172;8.058;2022-09-06T05:30:42;7.65;;;4.40;;
13891;SDS011;7016;48.172;8.058;2022-09-06T05:33:08;6.15;;;4.72;;
13891;SDS011;7016;48.172;8.058;2022-09-06T05:35:35;6.75;;;4.72;;
13891;SDS011;7016;48.172;8.058;2022-09-06T05:38:00;11.93;;;4.82;;
13891;SDS011;7016;48.172;8.058;2022-09-06T05:40:26;5.80;;;4.47;;
13891;SDS011;7016;48.172;8.058;2022-09-06T05:42:52;7.55;;;4.85;;
13891;SDS011;7016;48.172;8.058;2022-09-06T05:45:18;7.15;;;4.18;;
13891;SDS011;7016;48.172;8.058;2022-09-06T05:47:43;7.95;;;4.70;;
13891;SDS011;7016;48.172;8.058;2022-09-06T05:50:09;9.23;;;5.63;;
13891;SDS011;7016;48.172;8.058;2022-09-06T05:52:35;9.57;;;5.25;;
13891;SDS011;7016;48.172;8.058;2022-09-06T05:55:01;7.07;;;5.00;;
13891;SDS011;7016;48.172;8.058;2022-09-06T05:57:27;7.20;;;4.65;;
13891;SDS011;7016;48.172;8.058;2022-09-06T05:59:53;8.10;;;5.00;;
13891;SDS011;7016;48.172;8.058;2022-09-06T06:02:19;5.50;;;4.40;;
13891;SDS011;7016;48.172;8.058;2022-09-06T06:04:46;8.00;;;4.57;;
13891;SDS011;7016;48.172;8.058;2022-09-06T06:07:12;7.00;;;3.85;;
13891;SDS011;7016;48.172;8.058;2022-09-06T06:09:38;6.07;;;4.47;;
13891;SDS011;7016;48.172;8.058;2022-09-06T06:12:04;6.22;;;4.15;;
13891;SDS011;7016;48.172;8.058;2022-09-06T06:14:30;9.18;;;4.57;;
13891;SDS011;7016;48.172;8.058;2022-09-06T06:16:56;8.27;;;4.60;;
13891;SDS011;7016;48.172;8.058;2022-09-06T06:19:21;6.75;;;4.30;;
13891;SDS011;7016;48.172;8.058;2022-09-06T06:21:47;6.35;;;4.20;;
13891;SDS011;7016;48.172;8.058;2022-09-06T06:24:13;9.90;;;4.40;;
13891;SDS011;7016;48.172;8.058;2022-09-06T06:26:38;6.55;;;4.10;;
13891;SDS011;7016;48.172;8.058;2022-09-06T06:29:05;7.60;;;5.20;;
13891;SDS011;7016;48.172;8.058;2022-09-06T06:31:34;7.50;;;4.05;;
13891;SDS011;7016;48.172;8.058;2022-09-06T06:34:00;10.02;;;4.63;;
13891;SDS011;7016;48.172;8.058;2022-09-06T06:36:28;7.70;;;4.60;;
13891;SDS011;7016;48.172;8.058;2022-09-06T06:38:55;6.50;;;4.50;;
13891;SDS011;7016;48.172;8.058;2022-09-06T06:41:23;6.47;;;4.38;;
13891;SDS011;7016;48.172;8.058;2022-09-06T06:43:50;9.50;;;4.32;;
13891;SDS011;7016;48.172;8.058;2022-09-06T06:46:17;9.13;;;4.28;;
13891;SDS011;7016;48.172;8.058;2022-09-06T06:48:44;10.82;;;4.50;;
13891;SDS011;7016;48.172;8.058;2022-09-06T06:51:10;7.70;;;4.75;;
13891;SDS011;7016;48.172;8.058;2022-09-06T06:53:37;7.68;;;4.43;;
13891;SDS011;7016;48.172;8.058;2022-09-06T06:58:43;9.38;;;4.75;;
13891;SDS011;7016;48.172;8.058;2022-09-06T07:01:10;9.00;;;4.82;;
13891;SDS011;7016;48.172;8.058;2022-09-06T07:03:37;8.30;;;5.13;;
13891;SDS011;7016;48.172;8.058;2022-09-06T07:06:04;11.32;;;5.22;;
13891;SDS011;7016;48.172;8.058;2022-09-06T07:08:29;7.45;;;4.70;;
13891;SDS011;7016;48.172;8.058;2022-09-06T07:10:55;7.22;;;5.25;;
13891;SDS011;7016;48.172;8.058;2022-09-06T07:13:21;10.25;;;5.55;;
13891;SDS011;7016;48.172;8.058;2022-09-06T07:15:47;7.97;;;5.57;;
13891;SDS011;7016;48.172;8.058;2022-09-06T07:18:16;11.80;;;5.47;;
13891;SDS011;7016;48.172;8.058;2022-09-06T07:20:42;8.90;;;5.47;;
13891;SDS011;7016;48.172;8.058;2022-09-06T07:23:08;12.13;;;5.78;;
13891;SDS011;7016;48.172;8.058;2022-09-06T07:25:34;7.32;;;5.03;;
13891;SDS011;7016;48.172;8.058;2022-09-06T07:28:01;6.97;;;5.00;;
13891;SDS011;7016;48.172;8.058;2022-09-06T07:30:32;8.43;;;4.97;;
13891;SDS011;7016;48.172;8.058;2022-09-06T07:33:01;7.68;;;5.07;;
13891;SDS011;7016;48.172;8.058;2022-09-06T07:35:30;11.18;;;5.40;;
13891;SDS011;7016;48.172;8.058;2022-09-06T07:37:56;9.35;;;5.18;;
13891;SDS011;7016;48.172;8.058;2022-09-06T07:40:24;10.88;;;5.47;;
13891;SDS011;7016;48.172;8.058;2022-09-06T07:42:51;8.18;;;5.22;;
13891;SDS011;7016;48.172;8.058;2022-09-06T07:45:20;7.07;;;4.95;;
13891;SDS011;7016;48.172;8.058;2022-09-06T07:47:51;9.55;;;5.45;;
13891;SDS011;7016;48.172;8.058;2022-09-06T07:50:18;12.57;;;6.38;;
13891;SDS011;7016;48.172;8.058;2022-09-06T07:52:45;9.20;;;5.75;;
13891;SDS011;7016;48.172;8.058;2022-09-06T07:55:11;10.70;;;5.60;;
13891;SDS011;7016;48.172;8.058;2022-09-06T07:57:36;8.20;;;5.95;;
13891;SDS011;7016;48.172;8.058;2022-09-06T08:00:02;9.75;;;5.80;;
13891;SDS011;7016;48.172;8.058;2022-09-06T08:02:29;9.68;;;6.30;;
13891;SDS011;7016;48.172;8.058;2022-09-06T08:04:55;11.70;;;6.03;;
13891;SDS011;7016;48.172;8.058;2022-09-06T08:07:21;8.75;;;6.00;;
13891;SDS011;7016;48.172;8.058;2022-09-06T08:09:48;13.07;;;6.40;;
13891;SDS011;7016;48.172;8.058;2022-09-06T08:12:14;10.80;;;6.13;;
13891;SDS011;7016;48.172;8.058;2022-09-06T08:14:40;17.23;;;7.45;;
13891;SDS011;7016;48.172;8.058;2022-09-06T08:17:05;17.55;;;7.72;;
13891;SDS011;7016;48.172;8.058;2022-09-06T08:19:31;16.90;;;5.97;;
13891;SDS011;7016;48.172;8.058;2022-09-06T08:21:58;15.70;;;5.60;;
13891;SDS011;7016;48.172;8.058;2022-09-06T08:24:24;19.60;;;5.60;;
13891;SDS011;7016;48.172;8.058;2022-09-06T08:26:50;13.30;;;4.80;;
13891;SDS011;7016;48.172;8.058;2022-09-06T08:29:16;13.88;;;5.30;;
13891;SDS011;7016;48.172;8.058;2022-09-06T08:31:44;17.42;;;6.35;;
13891;SDS011;7016;48.172;8.058;2022-09-06T08:34:10;23.10;;;6.55;;
13891;SDS011;7016;48.172;8.058;2022-09-06T08:36:36;14.93;;;6.50;;
13891;SDS011;7016;48.172;8.058;2022-09-06T08:39:04;17.70;;;6.13;;
13891;SDS011;7016;48.172;8.058;2022-09-06T08:44:24;17.20;;;5.97;;
13891;SDS011;7016;48.172;8.058;2022-09-06T08:46:51;18.02;;;6.90;;
13891;SDS011;7016;48.172;8.058;2022-09-06T08:49:26;14.88;;;7.00;;
13891;SDS011;7016;48.172;8.058;2022-09-06T08:52:04;22.60;;;5.88;;
13891;SDS011;7016;48.172;8.058;2022-09-06T09:00:21;18.52;;;7.53;;
13891;SDS011;7016;48.172;8.058;2022-09-06T09:02:57;25.48;;;8.20;;
13891;SDS011;7016;48.172;8.058;2022-09-06T09:05:35;16.55;;;6.45;;
13891;SDS011;7016;48.172;8.058;2022-09-06T09:10:41;15.18;;;6.28;;
13891;SDS011;7016;48.172;8.058;2022-09-06T09:13:16;17.33;;;5.70;;
13891;SDS011;7016;48.172;8.058;2022-09-06T09:16:03;17.77;;;6.15;;
13891;SDS011;7016;48.172;8.058;2022-09-06T09:18:31;16.90;;;5.75;;
13891;SDS011;7016;48.172;8.058;2022-09-06T09:20:58;14.35;;;5.35;;
13891;SDS011;7016;48.172;8.058;2022-09-06T09:23:24;11.63;;;5.53;;
13891;SDS011;7016;48.172;8.058;2022-09-06T09:25:52;18.73;;;6.10;;
13891;SDS011;7016;48.172;8.058;2022-09-06T09:28:23;21.08;;;6.75;;
13891;SDS011;7016;48.172;8.058;2022-09-06T09:30:53;14.65;;;5.80;;
13891;SDS011;7016;48.172;8.058;2022-09-06T09:36:06;14.73;;;7.63;;
13891;SDS011;7016;48.172;8.058;2022-09-06T09:38:45;28.70;;;8.38;;
13891;SDS011;7016;48.172;8.058;2022-09-06T09:41:27;24.75;;;8.23;;
13891;SDS011;7016;48.172;8.058;2022-09-06T09:43:56;21.45;;;7.68;;
13891;SDS011;7016;48.172;8.058;2022-09-06T09:51:41;14.38;;;5.80;;
13891;SDS011;7016;48.172;8.058;2022-09-06T09:54:10;15.50;;;6.18;;
13891;SDS011;7016;48.172;8.058;2022-09-06T09:59:14;18.92;;;6.07;;
13891;SDS011;7016;48.172;8.058;2022-09-06T10:01:51;13.07;;;5.90;;
13891;SDS011;7016;48.172;8.058;2022-09-06T10:04:31;14.15;;;5.15;;
13891;SDS011;7016;48.172;8.058;2022-09-06T10:07:34;18.30;;;4.93;;
13891;SDS011;7016;48.172;8.058;2022-09-06T10:09:57;14.02;;;4.25;;
13891;SDS011;7016;48.172;8.058;2022-09-06T10:12:32;8.18;;;4.03;;
13891;SDS011;7016;48.172;8.058;2022-09-06T10:15:00;15.63;;;5.10;;
13891;SDS011;7016;48.172;8.058;2022-09-06T10:17:28;10.93;;;4.57;;
13891;SDS011;7016;48.172;8.058;2022-09-06T10:20:14;14.77;;;4.20;;
13891;SDS011;7016;48.172;8.058;2022-09-06T10:36:13;13.85;;;4.80;;
13891;SDS011;7016;48.172;8.058;2022-09-06T10:41:53;12.23;;;4.10;;
13891;SDS011;7016;48.172;8.058;2022-09-06T10:47:07;12.07;;;4.05;;
13891;SDS011;7016;48.172;8.058;2022-09-06T10:49:39;10.50;;;3.47;;
13891;SDS011;7016;48.172;8.058;2022-09-06T10:52:10;11.35;;;3.17;;
13891;SDS011;7016;48.172;8.058;2022-09-06T10:54:41;10.10;;;3.00;;
13891;SDS011;7016;48.172;8.058;2022-09-06T10:57:15;10.45;;;2.63;;
13891;SDS011;7016;48.172;8.058;2022-09-06T10:59:49;9.57;;;2.35;;
13891;SDS011;7016;48.172;8.058;2022-09-06T11:05:15;6.53;;;2.30;;
13891;SDS011;7016;48.172;8.058;2022-09-06T11:07:45;9.95;;;2.65;;
13891;SDS011;7016;48.172;8.058;2022-09-06T11:31:47;4.28;;;2.10;;
13891;SDS011;7016;48.172;8.058;2022-09-06T11:34:22;10.32;;;2.50;;
13891;SDS011;7016;48.172;8.058;2022-09-06T11:36:53;10.07;;;2.63;;
13891;SDS011;7016;48.172;8.058;2022-09-06T11:42:00;8.13;;;2.40;;
13891;SDS011;7016;48.172;8.058;2022-09-06T11:50:16;8.93;;;3.08;;
13891;SDS011;7016;48.172;8.058;2022-09-06T11:53:00;14.60;;;3.50;;
13891;SDS011;7016;48.172;8.058;2022-09-06T11:55:42;14.65;;;4.65;;
13891;SDS011;7016;48.172;8.058;2022-09-06T12:00:42;12.55;;;3.08;;
13891;SDS011;7016;48.172;8.058;2022-09-06T12:03:58;9.43;;;3.08;;
13891;SDS011;7016;48.172;8.058;2022-09-06T12:08:42;9.13;;;2.83;;
13891;SDS011;7016;48.172;8.058;2022-09-06T12:25:05;10.00;;;3.38;;
13891;SDS011;7016;48.172;8.058;2022-09-06T12:27:34;10.25;;;3.40;;
13891;SDS011;7016;48.172;8.058;2022-09-06T12:30:10;6.07;;;2.83;;
13891;SDS011;7016;48.172;8.058;2022-09-06T12:32:47;12.10;;;3.55;;
13891;SDS011;7016;48.172;8.058;2022-09-06T12:35:20;8.50;;;3.15;;
13891;SDS011;7016;48.172;8.058;2022-09-06T12:37:49;13.00;;;3.42;;
13891;SDS011;7016;48.172;8.058;2022-09-06T12:40:20;9.95;;;3.15;;
13891;SDS011;7016;48.172;8.058;2022-09-06T12:42:47;10.77;;;3.30;;
13891;SDS011;7016;48.172;8.058;2022-09-06T12:45:15;13.65;;;3.92;;
13891;SDS011;7016;48.172;8.058;2022-09-06T12:47:42;13.20;;;3.97;;
13891;SDS011;7016;48.172;8.058;2022-09-06T12:50:16;12.02;;;4.00;;
13891;SDS011;7016;48.172;8.058;2022-09-06T12:55:20;11.80;;;3.47;;
13891;SDS011;7016;48.172;8.058;2022-09-06T12:57:57;13.57;;;3.20;;
13891;SDS011;7016;48.172;8.058;2022-09-06T13:06:01;8.82;;;3.45;;
13891;SDS011;7016;48.172;8.058;2022-09-06T13:09:02;12.90;;;3.88;;
13891;SDS011;7016;48.172;8.058;2022-09-06T13:14:00;15.80;;;3.60;;
13891;SDS011;7016;48.172;8.058;2022-09-06T13:16:41;12.57;;;3.47;;
13891;SDS011;7016;48.172;8.058;2022-09-06T13:19:16;9.23;;;3.10;;
13891;SDS011;7016;48.172;8.058;2022-09-06T13:21:53;14.82;;;3.75;;
13891;SDS011;7016;48.172;8.058;2022-09-06T13:24:20;14.40;;;3.88;;
13891;SDS011;7016;48.172;8.058;2022-09-06T13:26:48;10.10;;;3.33;;
13891;SDS011;7016;48.172;8.058;2022-09-06T13:31:51;14.30;;;3.45;;
13891;SDS011;7016;48.172;8.058;2022-09-06T13:34:22;10.00;;;3.30;;
13891;SDS011;7016;48.172;8.058;2022-09-06T13:36:51;8.70;;;3.28;;
13891;SDS011;7016;48.172;8.058;2022-09-06T13:39:35;13.02;;;3.60;;
13891;SDS011;7016;48.172;8.058;2022-09-06T13:44:32;11.80;;;3.65;;
13891;SDS011;7016;48.172;8.058;2022-09-06T13:46:59;12.95;;;3.97;;
13891;SDS011;7016;48.172;8.058;2022-09-06T13:49:26;16.17;;;3.78;;
13891;SDS011;7016;48.172;8.058;2022-09-06T13:51:53;14.60;;;3.20;;
13891;SDS011;7016;48.172;8.058;2022-09-06T13:54:22;13.07;;;3.80;;
13891;SDS011;7016;48.172;8.058;2022-09-06T13:56:48;11.98;;;3.70;;
13891;SDS011;7016;48.172;8.058;2022-09-06T13:59:14;11.65;;;3.40;;
13891;SDS011;7016;48.172;8.058;2022-09-06T14:01:41;11.15;;;3.28;;
13891;SDS011;7016;48.172;8.058;2022-09-06T14:04:10;9.77;;;3.80;;
13891;SDS011;7016;48.172;8.058;2022-09-06T14:06:38;15.20;;;3.60;;
13891;SDS011;7016;48.172;8.058;2022-09-06T14:09:04;12.45;;;3.15;;
13891;SDS011;7016;48.172;8.058;2022-09-06T14:11:30;7.75;;;2.97;;
13891;SDS011;7016;48.172;8.058;2022-09-06T14:13:56;16.38;;;3.78;;
13891;SDS011;7016;48.172;8.058;2022-09-06T14:16:22;12.45;;;3.35;;
13891;SDS011;7016;48.172;8.058;2022-09-06T14:18:48;9.77;;;2.97;;
13891;SDS011;7016;48.172;8.058;2022-09-06T14:21:14;10.75;;;3.25;;
13891;SDS011;7016;48.172;8.058;2022-09-06T14:23:40;13.40;;;2.65;;
13891;SDS011;7016;48.172;8.058;2022-09-06T14:26:06;10.88;;;2.65;;
13891;SDS011;7016;48.172;8.058;2022-09-06T14:28:32;13.23;;;2.95;;
13891;SDS011;7016;48.172;8.058;2022-09-06T14:31:07;8.77;;;2.38;;
13891;SDS011;7016;48.172;8.058;2022-09-06T14:33:35;6.25;;;2.30;;
13891;SDS011;7016;48.172;8.058;2022-09-06T14:36:04;7.75;;;2.20;;
13891;SDS011;7016;48.172;8.058;2022-09-06T14:38:33;9.05;;;2.47;;
13891;SDS011;7016;48.172;8.058;2022-09-06T14:41:01;7.15;;;2.42;;
13891;SDS011;7016;48.172;8.058;2022-09-06T14:43:28;9.13;;;2.33;;
13891;SDS011;7016;48.172;8.058;2022-09-06T14:45:53;8.93;;;2.03;;
13891;SDS011;7016;48.172;8.058;2022-09-06T14:48:19;9.45;;;2.58;;
13891;SDS011;7016;48.172;8.058;2022-09-06T14:50:45;9.23;;;2.55;;
13891;SDS011;7016;48.172;8.058;2022-09-06T14:53:11;10.30;;;2.00;;
13891;SDS011;7016;48.172;8.058;2022-09-06T14:55:37;7.80;;;2.30;;
13891;SDS011;7016;48.172;8.058;2022-09-06T14:58:03;8.68;;;2.15;;
13891;SDS011;7016;48.172;8.058;2022-09-06T15:00:29;7.03;;;2.15;;
13891;SDS011;7016;48.172;8.058;2022-09-06T15:02:55;5.38;;;2.33;;
13891;SDS011;7016;48.172;8.058;2022-09-06T15:05:21;6.60;;;2.17;;
13891;SDS011;7016;48.172;8.058;2022-09-06T15:07:47;5.88;;;2.42;;
13891;SDS011;7016;48.172;8.058;2022-09-06T15:10:13;11.02;;;2.63;;
13891;SDS011;7016;48.172;8.058;2022-09-06T15:12:39;9.52;;;2.70;;
13891;SDS011;7016;48.172;8.058;2022-09-06T15:15:05;9.55;;;2.58;;
13891;SDS011;7016;48.172;8.058;2022-09-06T15:17:31;10.35;;;2.90;;
13891;SDS011;7016;48.172;8.058;2022-09-06T15:19:59;10.55;;;2.88;;
13891;SDS011;7016;48.172;8.058;2022-09-06T15:22:24;8.82;;;2.42;;
13891;SDS011;7016;48.172;8.058;2022-09-06T15:24:50;10.52;;;3.22;;
13891;SDS011;7016;48.172;8.058;2022-09-06T15:27:16;10.82;;;2.40;;
13891;SDS011;7016;48.172;8.058;2022-09-06T15:29:42;8.60;;;2.42;;
13891;SDS011;7016;48.172;8.058;2022-09-06T15:32:09;8.10;;;2.60;;
13891;SDS011;7016;48.172;8.058;2022-09-06T15:34:34;10.52;;;2.88;;
13891;SDS011;7016;48.172;8.058;2022-09-06T15:37:00;9.88;;;3.00;;
13891;SDS011;7016;48.172;8.058;2022-09-06T15:39:26;9.02;;;2.40;;
13891;SDS011;7016;48.172;8.058;2022-09-06T15:41:51;10.07;;;3.00;;
13891;SDS011;7016;48.172;8.058;2022-09-06T15:44:17;7.65;;;2.35;;
13891;SDS011;7016;48.172;8.058;2022-09-06T15:46:49;9.55;;;2.38;;
13891;SDS011;7016;48.172;8.058;2022-09-06T15:49:18;8.15;;;2.35;;
13891;SDS011;7016;48.172;8.058;2022-09-06T15:51:46;9.30;;;2.53;;
13891;SDS011;7016;48.172;8.058;2022-09-06T15:54:13;6.72;;;2.50;;
13891;SDS011;7016;48.172;8.058;2022-09-06T15:56:40;18.63;;;2.88;;
13891;SDS011;7016;48.172;8.058;2022-09-06T15:59:06;12.05;;;3.25;;
13891;SDS011;7016;48.172;8.058;2022-09-06T16:01:33;8.18;;;2.63;;
13891;SDS011;7016;48.172;8.058;2022-09-06T16:03:59;13.32;;;2.90;;
13891;SDS011;7016;48.172;8.058;2022-09-06T16:06:37;11.30;;;2.65;;
13891;SDS011;7016;48.172;8.058;2022-09-06T16:09:07;9.52;;;2.30;;
13891;SDS011;7016;48.172;8.058;2022-09-06T16:11:34;10.60;;;3.00;;
13891;SDS011;7016;48.172;8.058;2022-09-06T16:14:03;10.43;;;2.95;;
13891;SDS011;7016;48.172;8.058;2022-09-06T16:16:31;13.98;;;2.90;;
13891;SDS011;7016;48.172;8.058;2022-09-06T16:18:59;8.50;;;2.78;;
13891;SDS011;7016;48.172;8.058;2022-09-06T16:21:26;8.23;;;2.50;;
13891;SDS011;7016;48.172;8.058;2022-09-06T16:23:58;9.25;;;2.97;;
13891;SDS011;7016;48.172;8.058;2022-09-06T16:26:33;7.97;;;2.58;;
13891;SDS011;7016;48.172;8.058;2022-09-06T16:29:00;10.25;;;2.80;;
13891;SDS011;7016;48.172;8.058;2022-09-06T16:31:27;7.35;;;2.58;;
13891;SDS011;7016;48.172;8.058;2022-09-06T16:33:54;7.95;;;2.92;;
13891;SDS011;7016;48.172;8.058;2022-09-06T16:36:22;8.13;;;2.55;;
13891;SDS011;7016;48.172;8.058;2022-09-06T16:38:48;12.45;;;3.20;;
13891;SDS011;7016;48.172;8.058;2022-09-06T16:41:19;10.02;;;3.33;;
13891;SDS011;7016;48.172;8.058;2022-09-06T16:43:50;10.27;;;3.00;;
13891;SDS011;7016;48.172;8.058;2022-09-06T16:46:17;8.32;;;2.50;;
13891;SDS011;7016;48.172;8.058;2022-09-06T16:48:54;9.80;;;2.63;;
13891;SDS011;7016;48.172;8.058;2022-09-06T16:51:22;9.98;;;2.95;;
13891;SDS011;7016;48.172;8.058;2022-09-06T16:53:49;9.05;;;2.63;;
13891;SDS011;7016;48.172;8.058;2022-09-06T16:56:17;9.45;;;2.55;;
13891;SDS011;7016;48.172;8.058;2022-09-06T16:58:55;8.65;;;2.70;;
13891;SDS011;7016;48.172;8.058;2022-09-06T17:01:23;8.43;;;3.20;;
13891;SDS011;7016;48.172;8.058;2022-09-06T17:03:49;10.45;;;2.90;;
13891;SDS011;7016;48.172;8.058;2022-09-06T17:06:20;11.25;;;3.00;;
13891;SDS011;7016;48.172;8.058;2022-09-06T17:08:47;9.45;;;3.08;;
13891;SDS011;7016;48.172;8.058;2022-09-06T17:11:15;10.32;;;2.83;;
13891;SDS011;7016;48.172;8.058;2022-09-06T17:13:44;9.65;;;2.47;;
13891;SDS011;7016;48.172;8.058;2022-09-06T17:16:10;8.13;;;2.92;;
13891;SDS011;7016;48.172;8.058;2022-09-06T17:18:57;10.15;;;3.47;;
13891;SDS011;7016;48.172;8.058;2022-09-06T17:21:25;10.52;;;3.13;;
13891;SDS011;7016;48.172;8.058;2022-09-06T17:23:51;12.93;;;3.10;;